sensor_id;sensor_type;location;lat;lon;timestamp;pressure;altitude;pressure_sealevel;temperature;humidity
41202;BME280;26936;50.524;8.684;2024-02-04T00:00:35;100204.19;;;9.94;100.00
41202;BME280;26936;50.524;8.684;2024-02-04T00:03:02;100207.81;;;9.95;100.00
41202;BME280;26936;50.524;8.684;2024-02-04T00:05:27;100202.63;;;9.93;100.00
41202;BME280;26936;50.524;8.684;2024-02-04T00:07:53;100205.88;;;9.92;100.00
41202;BME280;26936;50.524;8.684;2024-02-04T00:10:18;100199.38;;;9.95;100.00
41202;BME280;26936;50.524;8.684;2024-02-04T00:12:44;100186.47;;;9.97;100.00
41202;BME280;26936;50.524;8.684;2024-02-04T00:15:09;100186.03;;;9.99;100.00
41202;BME280;26936;50.524;8.684;2024-02-04T00:17:34;100187.63;;;10.00;100.00
41202;BME280;26936;50.524;8.684;2024-02-04T00:20:00;100187.25;;;9.98;100.00
41202;BME280;26936;50.524;8.684;2024-02-04T00:22:27;100180.41;;;9.99;100.00
41202;BME280;26936;50.524;8.684;2024-02-04T00:24:52;100172.00;;;9.95;100.00
41202;BME280;26936;50.524;8.684;2024-02-04T00:27:17;100171.72;;;9.90;100.00
41202;BME280;26936;50.524;8.684;2024-02-04T00:29:43;100163.56;;;9.95;100.00
41202;BME280;26936;50.524;8.684;2024-02-04T00:32:08;100145.16;;;9.91;100.00
41202;BME280;26936;50.524;8.684;2024-02-04T00:34:33;100157.66;;;9.90;100.00
41202;BME280;26936;50.524;8.684;2024-02-04T00:36:59;100156.44;;;9.91;100.00
41202;BME280;26936;50.524;8.684;2024-02-04T00:39:25;100159.66;;;9.89;100.00
41202;BME280;26936;50.524;8.684;2024-02-04T00:41:50;100170.88;;;9.93;100.00
41202;BME280;26936;50.524;8.684;2024-02-04T00:44:16;100157.66;;;9.90;100.00
41202;BME280;26936;50.524;8.684;2024-02-04T00:46:41;100164.81;;;9.94;100.00
41202;BME280;26936;50.524;8.684;2024-02-04T00:49:06;100172.44;;;9.94;100.00
41202;BME280;26936;50.524;8.684;2024-02-04T00:51:31;100171.00;;;9.86;100.00
41202;BME280;26936;50.524;8.684;2024-02-04T00:53:57;100166.28;;;9.79;100.00
41202;BME280;26936;50.524;8.684;2024-02-04T00:56:23;100170.75;;;9.77;100.00
41202;BME280;26936;50.524;8.684;2024-02-04T00:58:48;100170.00;;;9.73;100.00
41202;BME280;26936;50.524;8.684;2024-02-04T01:01:13;100171.97;;;9.76;100.00
41202;BME280;26936;50.524;8.684;2024-02-04T01:03:39;100172.78;;;9.76;100.00
41202;BME280;26936;50.524;8.684;2024-02-04T01:06:04;100170.31;;;9.78;100.00
41202;BME280;26936;50.524;8.684;2024-02-04T01:08:29;100164.75;;;9.75;100.00
41202;BME280;26936;50.524;8.684;2024-02-04T01:10:55;100160.00;;;9.72;100.00
41202;BME280;26936;50.524;8.684;2024-02-04T01:13:20;100166.84;;;9.71;100.00
41202;BME280;26936;50.524;8.684;2024-02-04T01:15:45;100173.19;;;9.75;100.00
41202;BME280;26936;50.524;8.684;2024-02-04T01:18:11;100176.00;;;9.75;100.00
41202;BME280;26936;50.524;8.684;2024-02-04T01:20:36;100166.44;;;9.72;100.00
41202;BME280;26936;50.524;8.684;2024-02-04T01:23:02;100168.31;;;9.79;100.00
41202;BME280;26936;50.524;8.684;2024-02-04T01:25:27;100167.56;;;9.75;100.00
41202;BME280;26936;50.524;8.684;2024-02-04T01:27:52;100177.72;;;9.92;100.00
41202;BME280;26936;50.524;8.684;2024-02-04T01:30:17;100184.88;;;9.96;100.00
41202;BME280;26936;50.524;8.684;2024-02-04T01:32:43;100185.38;;;9.91;100.00
41202;BME280;26936;50.524;8.684;2024-02-04T01:35:08;100188.91;;;9.95;100.00
41202;BME280;26936;50.524;8.684;2024-02-04T01:37:33;100182.56;;;9.91;100.00
41202;BME280;26936;50.524;8.684;2024-02-04T01:39:59;100178.06;;;9.94;100.00
41202;BME280;26936;50.524;8.684;2024-02-04T01:42:24;100184.50;;;9.94;100.00
41202;BME280;26936;50.524;8.684;2024-02-04T01:44:49;100178.50;;;9.92;100.00
41202;BME280;26936;50.524;8.684;2024-02-04T01:47:16;100176.88;;;9.95;100.00
41202;BME280;26936;50.524;8.684;2024-02-04T01:49:43;100174.91;;;9.92;100.00
41202;BME280;26936;50.524;8.684;2024-02-04T01:52:08;100170.06;;;9.92;100.00
41202;BME280;26936;50.524;8.684;2024-02-04T01:54:35;100175.41;;;9.87;100.00
41202;BME280;26936;50.524;8.684;2024-02-04T01:57:02;100168.53;;;9.88;100.00
41202;BME280;26936;50.524;8.684;2024-02-04T01:59:29;100163.72;;;9.88;100.00
41202;BME280;26936;50.524;8.684;2024-02-04T02:02:05;100164.09;;;9.90;100.00
41202;BME280;26936;50.524;8.684;2024-02-04T02:04:30;100167.69;;;9.91;100.00
41202;BME280;26936;50.524;8.684;2024-02-04T02:06:56;100159.25;;;9.91;100.00
41202;BME280;26936;50.524;8.684;2024-02-04T02:09:21;100147.97;;;9.91;100.00
41202;BME280;26936;50.524;8.684;2024-02-04T02:14:19;100151.59;;;9.91;100.00
41202;BME280;26936;50.524;8.684;2024-02-04T02:16:48;100157.66;;;9.90;100.00
41202;BME280;26936;50.524;8.684;2024-02-04T02:19:44;100139.53;;;9.91;100.00
41202;BME280;26936;50.524;8.684;2024-02-04T02:22:38;100129.09;;;9.91;100.00
41202;BME280;26936;50.524;8.684;2024-02-04T02:25:06;100125.84;;;9.93;100.00
41202;BME280;26936;50.524;8.684;2024-02-04T02:27:32;100131.53;;;9.89;100.00
41202;BME280;26936;50.524;8.684;2024-02-04T02:29:58;100133.25;;;9.83;100.00
41202;BME280;26936;50.524;8.684;2024-02-04T02:32:23;100128.72;;;9.89;100.00
41202;BME280;26936;50.524;8.684;2024-02-04T02:34:49;100122.00;;;9.83;100.00
41202;BME280;26936;50.524;8.684;2024-02-04T02:37:31;100128.06;;;9.82;100.00
41202;BME280;26936;50.524;8.684;2024-02-04T02:42:27;100109.53;;;9.84;100.00
41202;BME280;26936;50.524;8.684;2024-02-04T02:44:54;100109.97;;;9.83;100.00
41202;BME280;26936;50.524;8.684;2024-02-04T02:47:20;100114.72;;;9.86;100.00
41202;BME280;26936;50.524;8.684;2024-02-04T02:49:47;100108.00;;;9.80;100.00
41202;BME280;26936;50.524;8.684;2024-02-04T02:52:12;100108.44;;;9.78;100.00
41202;BME280;26936;50.524;8.684;2024-02-04T02:54:38;100113.69;;;9.76;100.00
41202;BME280;26936;50.524;8.684;2024-02-04T02:57:03;100103.69;;;9.75;100.00
41202;BME280;26936;50.524;8.684;2024-02-04T02:59:28;100101.63;;;9.76;100.00
41202;BME280;26936;50.524;8.684;2024-02-04T03:01:54;100098.53;;;9.70;100.00
41202;BME280;26936;50.524;8.684;2024-02-04T03:04:19;100107.69;;;9.74;100.00
41202;BME280;26936;50.524;8.684;2024-02-04T03:06:44;100092.84;;;9.74;100.00
41202;BME280;26936;50.524;8.684;2024-02-04T03:09:09;100101.22;;;9.77;100.00
41202;BME280;26936;50.524;8.684;2024-02-04T03:11:35;100096.38;;;9.78;100.00
41202;BME280;26936;50.524;8.684;2024-02-04T03:14:02;100100.06;;;9.75;100.00
41202;BME280;26936;50.524;8.684;2024-02-04T03:16:28;100110.44;;;9.78;100.00
41202;BME280;26936;50.524;8.684;2024-02-04T03:18:53;100108.88;;;9.77;100.00
41202;BME280;26936;50.524;8.684;2024-02-04T03:21:18;100099.63;;;9.76;100.00
41202;BME280;26936;50.524;8.684;2024-02-04T03:23:44;100100.06;;;9.75;100.00
41202;BME280;26936;50.524;8.684;2024-02-04T03:26:10;100101.72;;;9.72;100.00
41202;BME280;26936;50.524;8.684;2024-02-04T03:28:35;100092.91;;;9.70;100.00
41202;BME280;26936;50.524;8.684;2024-02-04T03:31:01;100088.44;;;9.73;100.00
41202;BME280;26936;50.524;8.684;2024-02-04T03:33:26;100073.22;;;9.70;100.00
41202;BME280;26936;50.524;8.684;2024-02-04T03:35:51;100058.00;;;9.68;100.00
41202;BME280;26936;50.524;8.684;2024-02-04T03:38:17;100076.03;;;9.70;100.00
41202;BME280;26936;50.524;8.684;2024-02-04T03:40:42;100072.78;;;9.72;100.00
41202;BME280;26936;50.524;8.684;2024-02-04T03:43:08;100075.53;;;9.75;100.00
41202;BME280;26936;50.524;8.684;2024-02-04T03:45:35;100080.50;;;9.68;100.00
41202;BME280;26936;50.524;8.684;2024-02-04T03:48:01;100077.03;;;9.60;100.00
41202;BME280;26936;50.524;8.684;2024-02-04T03:50:26;100083.94;;;9.55;100.00
41202;BME280;26936;50.524;8.684;2024-02-04T03:52:51;100070.25;;;9.57;100.00
41202;BME280;26936;50.524;8.684;2024-02-04T03:55:16;100081.91;;;9.56;100.00
41202;BME280;26936;50.524;8.684;2024-02-04T03:57:42;100077.09;;;9.56;100.00
41202;BME280;26936;50.524;8.684;2024-02-04T04:00:07;100071.34;;;9.63;100.00
41202;BME280;26936;50.524;8.684;2024-02-04T04:02:33;100069.47;;;9.57;100.00
41202;BME280;26936;50.524;8.684;2024-02-04T04:04:58;100071.34;;;9.63;100.00
41202;BME280;26936;50.524;8.684;2024-02-04T04:07:23;100080.34;;;9.55;100.00
41202;BME280;26936;50.524;8.684;2024-02-04T04:09:49;100078.31;;;9.55;100.00
41202;BME280;26936;50.524;8.684;2024-02-04T04:12:14;100073.56;;;9.52;100.00
41202;BME280;26936;50.524;8.684;2024-02-04T04:14:39;100063.56;;;9.48;100.00
41202;BME280;26936;50.524;8.684;2024-02-04T04:17:04;100070.75;;;9.52;100.00
41202;BME280;26936;50.524;8.684;2024-02-04T04:19:30;100070.38;;;9.50;100.00
41202;BME280;26936;50.524;8.684;2024-02-04T04:21:58;100067.19;;;9.48;100.00
41202;BME280;26936;50.524;8.684;2024-02-04T04:24:24;100069.19;;;9.48;100.00
41202;BME280;26936;50.524;8.684;2024-02-04T04:26:50;100066.34;;;9.51;100.00
41202;BME280;26936;50.524;8.684;2024-02-04T04:29:15;100061.56;;;9.48;100.00
41202;BME280;26936;50.524;8.684;2024-02-04T04:31:40;100069.13;;;9.51;100.00
41202;BME280;26936;50.524;8.684;2024-02-04T04:34:05;100067.94;;;9.52;100.00
41202;BME280;26936;50.524;8.684;2024-02-04T04:36:31;100054.31;;;9.51;100.00
41202;BME280;26936;50.524;8.684;2024-02-04T04:38:56;100068.84;;;9.46;100.00
41202;BME280;26936;50.524;8.684;2024-02-04T04:41:21;100062.38;;;9.49;100.00
41202;BME280;26936;50.524;8.684;2024-02-04T04:43:46;100072.38;;;9.50;100.00
41202;BME280;26936;50.524;8.684;2024-02-04T04:46:12;100064.75;;;9.50;100.00
41202;BME280;26936;50.524;8.684;2024-02-04T04:48:37;100068.00;;;9.49;100.00
41202;BME280;26936;50.524;8.684;2024-02-04T04:51:02;100069.13;;;9.51;100.00
41202;BME280;26936;50.524;8.684;2024-02-04T04:53:28;100051.13;;;9.49;100.00
41202;BME280;26936;50.524;8.684;2024-02-04T04:55:53;100055.56;;;9.46;100.00
41202;BME280;26936;50.524;8.684;2024-02-04T04:58:18;100050.69;;;9.50;100.00
41202;BME280;26936;50.524;8.684;2024-02-04T05:00:43;100057.53;;;9.49;100.00
41202;BME280;26936;50.524;8.684;2024-02-04T05:03:09;100060.06;;;9.44;100.00
41202;BME280;26936;50.524;8.684;2024-02-04T05:05:34;100059.56;;;9.49;100.00
41202;BME280;26936;50.524;8.684;2024-02-04T05:07:59;100053.13;;;9.48;100.00
41202;BME280;26936;50.524;8.684;2024-02-04T05:10:25;100054.38;;;9.47;100.00
41202;BME280;26936;50.524;8.684;2024-02-04T05:12:50;100049.19;;;9.46;100.00
41202;BME280;26936;50.524;8.684;2024-02-04T05:15:15;100060.06;;;9.44;100.00
41202;BME280;26936;50.524;8.684;2024-02-04T05:17:41;100059.19;;;9.47;100.00
41202;BME280;26936;50.524;8.684;2024-02-04T05:20:06;100063.56;;;9.48;100.00
41202;BME280;26936;50.524;8.684;2024-02-04T05:22:32;100066.53;;;9.41;100.00
41202;BME280;26936;50.524;8.684;2024-02-04T05:24:58;100060.84;;;9.44;100.00
41202;BME280;26936;50.524;8.684;2024-02-04T05:27:23;100063.28;;;9.42;100.00
41202;BME280;26936;50.524;8.684;2024-02-04T05:29:49;100065.25;;;9.45;100.00
41202;BME280;26936;50.524;8.684;2024-02-04T05:32:14;100062.06;;;9.43;100.00
41202;BME280;26936;50.524;8.684;2024-02-04T05:34:39;100063.28;;;9.42;100.00
41202;BME280;26936;50.524;8.684;2024-02-04T05:37:05;100067.25;;;9.45;100.00
41202;BME280;26936;50.524;8.684;2024-02-04T05:39:30;100057.94;;;9.48;100.00
41202;BME280;26936;50.524;8.684;2024-02-04T05:41:55;100068.44;;;9.47;100.00
41202;BME280;26936;50.524;8.684;2024-02-04T05:44:21;100073.19;;;9.50;100.00
41202;BME280;26936;50.524;8.684;2024-02-04T05:46:46;100072.38;;;9.50;100.00
41202;BME280;26936;50.524;8.684;2024-02-04T05:49:11;100070.75;;;9.52;100.00
41202;BME280;26936;50.524;8.684;2024-02-04T05:51:40;100077.09;;;9.56;100.00
41202;BME280;26936;50.524;8.684;2024-02-04T05:54:06;100067.84;;;9.56;100.00
41202;BME280;26936;50.524;8.684;2024-02-04T05:56:32;100078.69;;;9.57;100.00
41202;BME280;26936;50.524;8.684;2024-02-04T05:58:57;100063.47;;;9.55;100.00
41202;BME280;26936;50.524;8.684;2024-02-04T06:01:22;100066.59;;;9.60;100.00
41202;BME280;26936;50.524;8.684;2024-02-04T06:03:48;100068.22;;;9.58;100.00
41202;BME280;26936;50.524;8.684;2024-02-04T06:06:17;100063.78;;;9.60;100.00
41202;BME280;26936;50.524;8.684;2024-02-04T06:08:45;100057.66;;;9.66;100.00
41202;BME280;26936;50.524;8.684;2024-02-04T06:11:11;100064.47;;;9.64;100.00
41202;BME280;26936;50.524;8.684;2024-02-04T06:13:39;100063.63;;;9.68;100.00
41202;BME280;26936;50.524;8.684;2024-02-04T06:16:04;100068.91;;;9.66;100.00
41202;BME280;26936;50.524;8.684;2024-02-04T06:18:30;100064.91;;;9.63;100.00
41202;BME280;26936;50.524;8.684;2024-02-04T06:20:55;100072.16;;;9.64;100.00
41202;BME280;26936;50.524;8.684;2024-02-04T06:23:20;100075.72;;;9.64;100.00
41202;BME280;26936;50.524;8.684;2024-02-04T06:25:45;100077.84;;;9.60;100.00
41202;BME280;26936;50.524;8.684;2024-02-04T06:28:11;100082.22;;;9.61;100.00
41202;BME280;26936;50.524;8.684;2024-02-04T06:30:36;100071.41;;;9.60;100.00
41202;BME280;26936;50.524;8.684;2024-02-04T06:33:01;100071.47;;;9.56;100.00
41202;BME280;26936;50.524;8.684;2024-02-04T06:35:28;100068.22;;;9.58;100.00
41202;BME280;26936;50.524;8.684;2024-02-04T06:37:53;100063.84;;;9.57;100.00
41202;BME280;26936;50.524;8.684;2024-02-04T06:40:18;100070.31;;;9.54;100.00
41202;BME280;26936;50.524;8.684;2024-02-04T06:42:43;100064.19;;;9.59;100.00
41202;BME280;26936;50.524;8.684;2024-02-04T06:45:09;100053.00;;;9.55;100.00
41202;BME280;26936;50.524;8.684;2024-02-04T06:47:35;100057.91;;;9.51;100.00
41202;BME280;26936;50.524;8.684;2024-02-04T06:50:00;100054.72;;;9.49;100.00
41202;BME280;26936;50.524;8.684;2024-02-04T06:52:28;100064.69;;;9.54;100.00
41202;BME280;26936;50.524;8.684;2024-02-04T06:54:53;100076.38;;;9.52;100.00
41202;BME280;26936;50.524;8.684;2024-02-04T06:57:18;100077.53;;;9.55;100.00
41202;BME280;26936;50.524;8.684;2024-02-04T06:59:44;100082.78;;;9.53;100.00
41202;BME280;26936;50.524;8.684;2024-02-04T07:02:09;100075.25;;;9.46;100.00
41202;BME280;26936;50.524;8.684;2024-02-04T07:04:34;100063.53;;;9.51;100.00
41202;BME280;26936;50.524;8.684;2024-02-04T07:06:59;100069.88;;;9.55;100.00
41202;BME280;26936;50.524;8.684;2024-02-04T07:09:25;100075.13;;;9.53;100.00
41202;BME280;26936;50.524;8.684;2024-02-04T07:11:50;100065.03;;;9.56;100.00
41202;BME280;26936;50.524;8.684;2024-02-04T07:14:15;100065.03;;;9.56;100.00
41202;BME280;26936;50.524;8.684;2024-02-04T07:16:40;100049.78;;;9.57;100.00
41202;BME280;26936;50.524;8.684;2024-02-04T07:19:06;100049.41;;;9.55;100.00
41202;BME280;26936;50.524;8.684;2024-02-04T07:21:31;100051.72;;;9.60;100.00
41202;BME280;26936;50.524;8.684;2024-02-04T07:23:56;100058.91;;;9.61;100.00
41202;BME280;26936;50.524;8.684;2024-02-04T07:26:22;100062.91;;;9.63;100.00
41202;BME280;26936;50.524;8.684;2024-02-04T07:28:47;100060.59;;;9.58;100.00
41202;BME280;26936;50.524;8.684;2024-02-04T07:31:12;100066.16;;;9.62;100.00
41202;BME280;26936;50.524;8.684;2024-02-04T07:33:38;100059.66;;;9.65;100.00
41202;BME280;26936;50.524;8.684;2024-02-04T07:36:03;100060.03;;;9.67;100.00
41202;BME280;26936;50.524;8.684;2024-02-04T07:38:28;100050.41;;;9.64;100.00
41202;BME280;26936;50.524;8.684;2024-02-04T07:40:54;100047.91;;;9.70;100.00
41202;BME280;26936;50.524;8.684;2024-02-04T07:43:20;100053.53;;;9.70;100.00
41202;BME280;26936;50.524;8.684;2024-02-04T07:45:46;100042.72;;;9.69;100.00
41202;BME280;26936;50.524;8.684;2024-02-04T07:48:11;100046.31;;;9.69;100.00
41202;BME280;26936;50.524;8.684;2024-02-04T07:50:36;100046.75;;;9.68;100.00
41202;BME280;26936;50.524;8.684;2024-02-04T07:53:02;100052.78;;;9.66;100.00
41202;BME280;26936;50.524;8.684;2024-02-04T07:55:27;100054.34;;;9.71;100.00
41202;BME280;26936;50.524;8.684;2024-02-04T07:57:52;100060.38;;;9.69;100.00
41202;BME280;26936;50.524;8.684;2024-02-04T08:00:18;100059.59;;;9.69;100.00
41202;BME280;26936;50.524;8.684;2024-02-04T08:02:46;100045.59;;;9.65;100.00
41202;BME280;26936;50.524;8.684;2024-02-04T08:05:12;100023.97;;;9.62;100.00
41202;BME280;26936;50.524;8.684;2024-02-04T08:07:37;100030.38;;;9.62;100.00
41202;BME280;26936;50.524;8.684;2024-02-04T08:10:03;100025.53;;;9.63;100.00
41202;BME280;26936;50.524;8.684;2024-02-04T08:12:28;100040.47;;;9.60;100.00
41202;BME280;26936;50.524;8.684;2024-02-04T08:14:54;100035.91;;;9.66;100.00
41202;BME280;26936;50.524;8.684;2024-02-04T08:17:19;100042.28;;;9.70;100.00
41202;BME280;26936;50.524;8.684;2024-02-04T08:19:45;100035.38;;;9.75;100.00
41202;BME280;26936;50.524;8.684;2024-02-04T08:22:10;100038.19;;;9.75;100.00
41202;BME280;26936;50.524;8.684;2024-02-04T08:24:35;100042.56;;;9.76;100.00
41202;BME280;26936;50.524;8.684;2024-02-04T08:27:01;100055.34;;;9.80;100.00
41202;BME280;26936;50.524;8.684;2024-02-04T08:29:26;100044.38;;;9.86;100.00
41202;BME280;26936;50.524;8.684;2024-02-04T08:31:52;100038.97;;;9.95;100.00
41202;BME280;26936;50.524;8.684;2024-02-04T08:34:18;100039.34;;;9.97;100.00
41202;BME280;26936;50.524;8.684;2024-02-04T08:36:45;100030.09;;;9.96;100.00
41202;BME280;26936;50.524;8.684;2024-02-04T08:39:10;100037.81;;;9.92;100.00
41202;BME280;26936;50.524;8.684;2024-02-04T08:41:36;100028.16;;;9.93;100.00
41202;BME280;26936;50.524;8.684;2024-02-04T08:44:01;100033.78;;;9.93;100.00
41202;BME280;26936;50.524;8.684;2024-02-04T08:46:26;100025.34;;;9.93;100.00
41202;BME280;26936;50.524;8.684;2024-02-04T08:48:52;100025.34;;;9.93;100.00
41202;BME280;26936;50.524;8.684;2024-02-04T08:51:17;100023.91;;;9.85;100.00
41202;BME280;26936;50.524;8.684;2024-02-04T08:53:44;100019.84;;;9.86;100.00
41202;BME280;26936;50.524;8.684;2024-02-04T08:56:09;100020.22;;;9.88;100.00
41202;BME280;26936;50.524;8.684;2024-02-04T08:58:35;100033.88;;;9.90;100.00
41202;BME280;26936;50.524;8.684;2024-02-04T09:01:02;100038.56;;;9.96;100.00
41202;BME280;26936;50.524;8.684;2024-02-04T09:03:27;100031.75;;;9.94;100.00
41202;BME280;26936;50.524;8.684;2024-02-04T09:05:53;100025.69;;;9.95;100.00
41202;BME280;26936;50.524;8.684;2024-02-04T09:08:18;100050.25;;;9.95;100.00
41202;BME280;26936;50.524;8.684;2024-02-04T09:10:43;100045.81;;;9.94;100.00
41202;BME280;26936;50.524;8.684;2024-02-04T09:13:09;100047.88;;;9.93;100.00
41202;BME280;26936;50.524;8.684;2024-02-04T09:15:34;100034.56;;;9.94;100.00
41202;BME280;26936;50.524;8.684;2024-02-04T09:17:59;100027.72;;;9.95;100.00
41202;BME280;26936;50.524;8.684;2024-02-04T09:20:24;100033.50;;;9.88;100.00
41202;BME280;26936;50.524;8.684;2024-02-04T09:22:50;100042.66;;;9.92;100.00
41202;BME280;26936;50.524;8.684;2024-02-04T09:25:15;100038.56;;;9.96;100.00
41202;BME280;26936;50.524;8.684;2024-02-04T09:27:40;100031.69;;;9.97;100.00
41202;BME280;26936;50.524;8.684;2024-02-04T09:30:06;100023.41;;;9.90;100.00
41202;BME280;26936;50.524;8.684;2024-02-04T09:32:31;100014.97;;;9.90;100.00
41202;BME280;26936;50.524;8.684;2024-02-04T09:34:57;100020.94;;;9.92;100.00
41202;BME280;26936;50.524;8.684;2024-02-04T09:37:22;100020.59;;;9.90;100.00
41202;BME280;26936;50.524;8.684;2024-02-04T09:39:48;100023.03;;;9.88;100.00
41202;BME280;26936;50.524;8.684;2024-02-04T09:42:19;100033.50;;;9.88;100.00
41202;BME280;26936;50.524;8.684;2024-02-04T09:44:52;100021.00;;;9.89;100.00
41202;BME280;26936;50.524;8.684;2024-02-04T09:47:17;100008.81;;;9.95;100.00
41202;BME280;26936;50.524;8.684;2024-02-04T09:49:43;100026.94;;;9.94;100.00
41202;BME280;26936;50.524;8.684;2024-02-04T09:52:09;100018.91;;;9.93;100.00
41202;BME280;26936;50.524;8.684;2024-02-04T09:54:42;100029.66;;;9.98;100.00
41202;BME280;26936;50.524;8.684;2024-02-04T09:57:09;100037.25;;;10.01;100.00
41202;BME280;26936;50.524;8.684;2024-02-04T09:59:34;100042.88;;;10.01;100.00
41202;BME280;26936;50.524;8.684;2024-02-04T10:02:01;100042.38;;;10.06;100.00
41202;BME280;26936;50.524;8.684;2024-02-04T10:04:28;100031.88;;;10.10;100.00
41202;BME280;26936;50.524;8.684;2024-02-04T10:06:53;100025.00;;;10.11;100.00
41202;BME280;26936;50.524;8.684;2024-02-04T10:09:18;100016.56;;;10.11;100.00
41202;BME280;26936;50.524;8.684;2024-02-04T10:11:44;100022.91;;;10.15;100.00
41202;BME280;26936;50.524;8.684;2024-02-04T10:14:09;100009.63;;;10.15;100.00
41202;BME280;26936;50.524;8.684;2024-02-04T10:16:35;100018.94;;;10.12;100.00
41202;BME280;26936;50.524;8.684;2024-02-04T10:19:01;100046.28;;;10.12;100.00
41202;BME280;26936;50.524;8.684;2024-02-04T10:21:26;100006.75;;;10.19;100.00
41202;BME280;26936;50.524;8.684;2024-02-04T10:23:52;100021.69;;;10.16;100.00
41202;BME280;26936;50.524;8.684;2024-02-04T10:26:17;100020.88;;;10.15;100.00
41202;BME280;26936;50.524;8.684;2024-02-04T10:28:45;100020.38;;;10.20;100.00
41202;BME280;26936;50.524;8.684;2024-02-04T10:31:12;100031.69;;;10.17;100.00
41202;BME280;26936;50.524;8.684;2024-02-04T10:33:37;100024.69;;;10.25;100.00
41202;BME280;26936;50.524;8.684;2024-02-04T10:36:03;100025.13;;;10.23;100.00
41202;BME280;26936;50.524;8.684;2024-02-04T10:38:29;100021.19;;;10.21;100.00
41202;BME280;26936;50.524;8.684;2024-02-04T10:40:55;100019.06;;;10.25;100.00
41202;BME280;26936;50.524;8.684;2024-02-04T10:43:24;100018.72;;;10.23;100.00
41202;BME280;26936;50.524;8.684;2024-02-04T10:45:53;100017.41;;;10.27;100.00
41202;BME280;26936;50.524;8.684;2024-02-04T10:48:24;100026.38;;;10.22;100.00
41202;BME280;26936;50.524;8.684;2024-02-04T10:50:51;100021.88;;;10.25;100.00
41202;BME280;26936;50.524;8.684;2024-02-04T10:53:19;100022.25;;;10.27;100.00
41202;BME280;26936;50.524;8.684;2024-02-04T10:55:46;100033.88;;;10.29;100.00
41202;BME280;26936;50.524;8.684;2024-02-04T10:58:13;100021.66;;;10.35;100.00
41202;BME280;26936;50.524;8.684;2024-02-04T11:00:42;100024.66;;;10.44;100.00
41202;BME280;26936;50.524;8.684;2024-02-04T11:03:08;100017.75;;;10.49;100.00
41202;BME280;26936;50.524;8.684;2024-02-04T11:05:37;100024.22;;;10.46;100.00
41202;BME280;26936;50.524;8.684;2024-02-04T11:08:04;100016.31;;;10.41;100.00
41202;BME280;26936;50.524;8.684;2024-02-04T11:10:31;100019.91;;;10.41;100.00
41202;BME280;26936;50.524;8.684;2024-02-04T11:12:58;100012.94;;;10.46;100.00
41202;BME280;26936;50.524;8.684;2024-02-04T11:15:29;100002.94;;;10.45;100.00
41202;BME280;26936;50.524;8.684;2024-02-04T11:21:17;99986.75;;;10.49;100.00
41202;BME280;26936;50.524;8.684;2024-02-04T11:24:14;99991.50;;;10.52;100.00
41202;BME280;26936;50.524;8.684;2024-02-04T11:26:44;99986.75;;;10.49;100.00
41202;BME280;26936;50.524;8.684;2024-02-04T11:29:11;99967.81;;;10.49;100.00
41202;BME280;26936;50.524;8.684;2024-02-04T11:31:38;99974.88;;;10.57;100.00
41202;BME280;26936;50.524;8.684;2024-02-04T11:34:05;99977.44;;;10.52;100.00
41202;BME280;26936;50.524;8.684;2024-02-04T11:36:39;99966.84;;;10.56;100.00
41202;BME280;26936;50.524;8.684;2024-02-04T11:39:34;99961.31;;;10.52;100.00
41202;BME280;26936;50.524;8.684;2024-02-04T11:42:00;99979.00;;;10.53;100.00
41202;BME280;26936;50.524;8.684;2024-02-04T11:44:26;99967.13;;;10.61;100.00
41202;BME280;26936;50.524;8.684;2024-02-04T11:46:52;99960.78;;;10.57;100.00
41202;BME280;26936;50.524;8.684;2024-02-04T11:49:25;99970.41;;;10.60;100.00
41202;BME280;26936;50.524;8.684;2024-02-04T11:51:51;99968.72;;;10.62;100.00
41202;BME280;26936;50.524;8.684;2024-02-04T11:54:17;99965.88;;;10.62;100.00
41202;BME280;26936;50.524;8.684;2024-02-04T11:56:48;99955.06;;;10.61;100.00
41202;BME280;26936;50.524;8.684;2024-02-04T11:59:19;99956.56;;;10.65;100.00
41202;BME280;26936;50.524;8.684;2024-02-04T12:01:47;99951.88;;;10.59;100.00
41202;BME280;26936;50.524;8.684;2024-02-04T12:04:13;99963.06;;;10.62;100.00
41202;BME280;26936;50.524;8.684;2024-02-04T12:06:40;99971.59;;;10.59;100.00
41202;BME280;26936;50.524;8.684;2024-02-04T12:09:06;99970.84;;;10.58;100.00
41202;BME280;26936;50.524;8.684;2024-02-04T12:11:34;99960.44;;;10.55;100.00
41202;BME280;26936;50.524;8.684;2024-02-04T12:14:00;99971.28;;;10.57;100.00
41202;BME280;26936;50.524;8.684;2024-02-04T12:16:26;99979.81;;;10.53;100.00
41202;BME280;26936;50.524;8.684;2024-02-04T12:18:52;99944.59;;;10.61;100.00
41202;BME280;26936;50.524;8.684;2024-02-04T12:21:17;99949.06;;;10.59;100.00
41202;BME280;26936;50.524;8.684;2024-02-04T12:23:43;99950.75;;;10.56;100.00
41202;BME280;26936;50.524;8.684;2024-02-04T12:26:08;99951.47;;;10.60;100.00
41202;BME280;26936;50.524;8.684;2024-02-04T12:28:33;99949.88;;;10.59;100.00
41202;BME280;26936;50.524;8.684;2024-02-04T12:30:59;99944.69;;;10.58;100.00
41202;BME280;26936;50.524;8.684;2024-02-04T12:33:24;99943.44;;;10.59;100.00
41202;BME280;26936;50.524;8.684;2024-02-04T12:35:53;99945.47;;;10.58;100.00
41202;BME280;26936;50.524;8.684;2024-02-04T12:38:21;99924.00;;;10.64;100.00
41202;BME280;26936;50.524;8.684;2024-02-04T12:40:46;99917.13;;;10.65;100.00
41202;BME280;26936;50.524;8.684;2024-02-04T12:43:12;99931.75;;;10.60;100.00
41202;BME280;26936;50.524;8.684;2024-02-04T12:45:37;99931.31;;;10.62;100.00
41202;BME280;26936;50.524;8.684;2024-02-04T12:48:03;99928.84;;;10.64;100.00
41202;BME280;26936;50.524;8.684;2024-02-04T12:50:28;99923.56;;;10.66;100.00